Time;durP1;ratioP1;P1;durP2;ratioP2;P2;SDS_P1;SDS_P2;PMS_P1;PMS_P2;Temp;Humidity;BMP_temperature;BMP_pressure;BME280_temperature;BME280_humidity;BME280_pressure;Samples;Min_cycle;Max_cycle;Signal;HPM_P1;HPM_P2
2021/07/10 00:00:51;;;;;;;6.70;3.20;;;16.60;99.90;;;;;;5046478;28;20152;-84
2021/07/10 00:03:46;;;;;;;5.68;2.55;;;17.90;99.90;;;;;;5008361;28;20058;-84
2021/07/10 00:06:25;;;;;;;5.88;3.08;;;16.50;99.90;;;;;;5025549;28;20046;-85
2021/07/10 00:09:03;;;;;;;4.95;2.92;;;16.50;99.90;;;;;;5026440;28;20053;-82
2021/07/10 00:11:40;;;;;;;6.78;2.58;;;16.50;99.90;;;;;;5037002;28;20046;-82
2021/07/10 00:14:21;;;;;;;5.35;3.03;;;16.50;99.90;;;;;;5025965;28;20052;-83
2021/07/10 00:17:20;;;;;;;6.20;3.50;;;16.70;99.90;;;;;;5044522;28;20054;-84
2021/07/10 00:20:02;;;;;;;8.00;3.22;;;16.50;99.90;;;;;;5045716;28;20045;-83
2021/07/10 00:22:53;;;;;;;;;;;;;;;;;;;;;
2021/07/10 00:25:26;;;;;;;4.90;2.42;;;16.70;99.90;;;;;;5027764;28;20046;-84
2021/07/10 00:28:07;;;;;;;9.50;3.10;;;16.40;99.90;;;;;;5039339;28;20045;-83
2021/07/10 00:30:52;;;;;;;7.28;3.47;;;16.40;99.90;;;;;;5043356;28;20040;-83
2021/07/10 00:33:25;;;;;;;6.95;2.85;;;16.30;99.90;;;;;;5043152;28;20053;-82
2021/07/10 00:36:17;;;;;;;7.45;2.78;;;16.30;99.90;;;;;;5032723;28;20042;-83
2021/07/10 00:38:53;;;;;;;5.35;2.30;;;16.30;99.90;;;;;;5025951;28;20050;-83
2021/07/10 00:41:25;;;;;;;7.40;3.40;;;16.30;99.90;;;;;;5010600;28;20042;-83
2021/07/10 00:44:09;;;;;;;7.93;3.08;;;16.30;99.90;;;;;;5040384;28;20051;-84
2021/07/10 00:47:16;;;;;;;8.35;3.15;;;16.30;99.90;;;;;;5029095;28;20061;-86
2021/07/10 00:50:03;;;;;;;8.02;3.63;;;16.20;99.90;;;;;;5047709;28;20049;-84
2021/07/10 00:52:52;;;;;;;6.93;3.05;;;16.20;99.90;;;;;;5032071;28;20065;-83
2021/07/10 00:55:38;;;;;;;6.57;2.90;;;16.20;99.90;;;;;;5046635;28;20093;-84
2021/07/10 00:58:38;;;;;;;6.15;2.85;;;16.20;99.90;;;;;;5025100;28;20038;-83
2021/07/10 01:01:38;;;;;;;7.28;3.67;;;16.20;99.90;;;;;;5007049;28;20947;-82
2021/07/10 01:04:27;;;;;;;7.03;2.90;;;16.20;99.90;;;;;;5036946;28;20046;-82
2021/07/10 01:07:03;;;;;;;7.05;3.17;;;16.20;99.90;;;;;;5042439;28;20045;-84
2021/07/10 01:09:36;;;;;;;7.25;2.97;;;15.70;99.90;;;;;;5045473;28;20071;-82
2021/07/10 01:12:20;;;;;;;7.22;3.20;;;15.60;99.90;;;;;;5047437;28;20053;-83
2021/07/10 01:15:34;;;;;;;6.07;3.08;;;16.30;99.90;;;;;;5027575;28;20049;-83
2021/07/10 01:18:19;;;;;;;5.63;2.80;;;16.20;99.90;;;;;;5027987;28;20060;-82
2021/07/10 01:20:55;;;;;;;6.38;3.35;;;16.20;99.90;;;;;;5010119;28;20038;-82
2021/07/10 01:23:51;;;;;;;7.60;3.08;;;16.20;99.90;;;;;;5020607;28;20076;-81
2021/07/10 01:26:52;;;;;;;4.88;2.83;;;16.20;99.90;;;;;;5035674;28;20046;-84
2021/07/10 01:29:38;;;;;;;7.07;4.25;;;16.20;99.90;;;;;;5040607;28;20056;-84
2021/07/10 01:32:10;;;;;;;7.32;2.97;;;15.90;99.90;;;;;;5026134;28;20546;-84
2021/07/10 01:34:51;;;;;;;18.08;4.88;;;16.20;99.90;;;;;;5025457;28;20042;-82
2021/07/10 01:37:25;;;;;;;6.88;3.28;;;16.10;99.90;;;;;;5025455;28;20049;-82
2021/07/10 01:40:22;;;;;;;5.93;2.72;;;16.20;99.90;;;;;;5025971;28;20044;-85
2021/07/10 01:43:07;;;;;;;;;;;;;;;;;;;;;
2021/07/10 01:45:42;;;;;;;6.82;2.63;;;16.10;99.90;;;;;;5045468;28;20050;-84
2021/07/10 01:48:23;;;;;;;11.70;3.00;;;17.00;99.90;;;;;;5043046;28;20045;-85
2021/07/10 01:51:00;;;;;;;5.18;2.55;;;16.10;99.90;;;;;;5044169;28;20511;-83
2021/07/10 01:53:38;;;;;;;6.28;2.78;;;16.00;99.90;;;;;;5027008;28;20034;-83
2021/07/10 01:56:21;;;;;;;6.05;2.90;;;16.00;99.90;;;;;;5043410;28;20067;-82
2021/07/10 01:59:10;;;;;;;6.93;2.53;;;16.00;99.90;;;;;;5025075;28;20675;-82
2021/07/10 02:01:52;;;;;;;4.60;2.60;;;16.00;99.90;;;;;;5005534;28;20038;-82
2021/07/10 02:04:25;;;;;;;5.07;2.53;;;16.00;99.90;;;;;;5024944;28;20054;-82
2021/07/10 02:07:04;;;;;;;6.88;2.58;;;16.00;99.90;;;;;;5027020;28;20050;-82
2021/07/10 02:09:52;;;;;;;3.97;3.08;;;16.00;99.90;;;;;;5030300;28;20046;-83
2021/07/10 02:12:33;;;;;;;5.13;2.50;;;15.30;99.90;;;;;;5030307;28;20334;-81
2021/07/10 02:15:17;;;;;;;5.30;2.40;;;16.00;99.90;;;;;;5049424;28;20041;-85
2021/07/10 02:17:56;;;;;;;4.10;2.03;;;15.90;99.90;;;;;;5028022;28;20053;-87
2021/07/10 02:20:38;;;;;;;5.75;2.88;;;15.90;99.90;;;;;;5016199;28;20133;-83
2021/07/10 02:23:07;;;;;;;3.97;1.77;;;16.00;99.90;;;;;;5047956;28;20064;-82
2021/07/10 02:25:38;;;;;;;;;;;15.90;99.90;;;;;;5015743;28;20087;-83
2021/07/10 02:28:16;;;;;;;4.50;2.58;;;15.80;99.90;;;;;;5015540;28;19921;-82
2021/07/10 02:30:50;;;;;;;6.00;2.42;;;15.80;99.90;;;;;;5046865;28;20052;-81
2021/07/10 02:33:21;;;;;;;5.30;1.80;;;15.80;99.90;;;;;;5047930;28;20041;-81
2021/07/10 02:35:52;;;;;;;5.82;2.45;;;15.40;99.90;;;;;;5050286;28;20049;-83
2021/07/10 02:38:34;;;;;;;7.70;2.00;;;15.80;99.90;;;;;;5049768;28;20047;-84
2021/07/10 02:41:08;;;;;;;4.78;2.38;;;15.80;99.90;;;;;;5050533;28;20049;-82
2021/07/10 02:43:39;;;;;;;4.28;2.13;;;15.80;99.90;;;;;;5049356;28;20042;-82
2021/07/10 02:46:12;;;;;;;4.80;2.10;;;15.90;99.90;;;;;;5046684;28;20029;-83
2021/07/10 02:48:41;;;;;;;5.95;2.75;;;15.90;99.90;;;;;;5013386;28;20060;-82
2021/07/10 02:51:16;;;;;;;6.70;2.38;;;15.80;99.90;;;;;;5032922;28;20045;-83
2021/07/10 02:53:46;;;;;;;3.47;2.33;;;15.90;99.90;;;;;;5049086;28;20049;-83
2021/07/10 02:56:15;;;;;;;7.60;2.80;;;15.80;99.90;;;;;;5041563;28;20034;-82
2021/07/10 02:58:44;;;;;;;8.63;2.65;;;15.70;99.90;;;;;;5046314;28;20047;-83
2021/07/10 03:01:26;;;;;;;4.93;2.53;;;15.80;99.90;;;;;;5046058;28;20050;-83
2021/07/10 03:03:55;;;;;;;4.37;2.43;;;15.80;99.90;;;;;;5048085;28;20050;-83
2021/07/10 03:06:33;;;;;;;4.28;2.58;;;15.80;99.90;;;;;;5046647;28;20064;-84
2021/07/10 03:09:03;;;;;;;9.35;3.67;;;15.70;99.90;;;;;;5048631;28;20063;-84
2021/07/10 03:11:38;;;;;;;6.05;3.05;;;15.70;99.90;;;;;;5040894;28;20057;-82
2021/07/10 03:14:16;;;;;;;5.68;2.40;;;15.70;99.90;;;;;;5046582;28;20045;-83
2021/07/10 03:16:49;;;;;;;5.57;2.70;;;15.70;99.90;;;;;;5029923;28;20052;-83
2021/07/10 03:19:23;;;;;;;3.63;2.25;;;15.70;99.90;;;;;;5045621;28;20057;-83
2021/07/10 03:21:57;;;;;;;5.63;3.58;;;15.70;99.90;;;;;;5047731;28;20044;-81
2021/07/10 03:24:28;;;;;;;6.45;3.22;;;15.60;99.90;;;;;;5046672;28;20053;-85
2021/07/10 03:27:10;;;;;;;;;;;;;;;;;;;;;
2021/07/10 03:29:40;;;;;;;4.55;2.65;;;15.80;99.90;;;;;;5047157;28;20059;-83
2021/07/10 03:32:14;;;;;;;3.78;2.30;;;15.70;99.90;;;;;;5046784;28;20049;-84
2021/07/10 03:34:50;;;;;;;6.45;2.78;;;15.70;99.90;;;;;;5046759;28;20053;-83
2021/07/10 03:37:24;;;;;;;6.25;3.08;;;15.70;99.90;;;;;;5047631;28;20050;-82
2021/07/10 03:39:59;;;;;;;11.55;2.10;;;15.70;99.90;;;;;;5041433;28;20048;-82
2021/07/10 03:42:48;;;;;;;5.53;2.25;;;16.00;99.90;;;;;;5029938;28;20050;-84
2021/07/10 03:45:20;;;;;;;6.90;2.50;;;15.50;99.90;;;;;;5028098;28;20068;-83
2021/07/10 03:47:57;;;;;;;7.60;3.25;;;15.60;99.90;;;;;;5045389;28;20041;-82
2021/07/10 03:50:29;;;;;;;3.70;2.65;;;15.60;99.90;;;;;;5047308;28;20049;-83
2021/07/10 03:53:09;;;;;;;7.25;2.92;;;15.60;99.90;;;;;;4995849;28;20038;-83
2021/07/10 03:55:41;;;;;;;7.55;2.60;;;15.70;99.90;;;;;;4995474;28;20054;-83
2021/07/10 03:58:16;;;;;;;5.47;2.17;;;15.60;99.90;;;;;;5063621;28;20045;-82
2021/07/10 04:00:55;;;;;;;6.10;3.28;;;15.60;99.90;;;;;;5048567;28;20039;-81
2021/07/10 04:03:30;;;;;;;6.47;2.80;;;15.90;99.90;;;;;;5050394;28;20137;-80
2021/07/10 04:06:00;;;;;;;10.10;2.95;;;15.60;99.90;;;;;;5031492;28;20052;-83
2021/07/10 04:08:35;;;;;;;5.80;2.38;;;15.60;99.90;;;;;;5029468;28;20057;-83
2021/07/10 04:11:26;;;;;;;5.18;3.28;;;15.60;99.90;;;;;;5021792;28;20057;-82
2021/07/10 04:14:08;;;;;;;7.55;2.47;;;14.30;99.90;;;;;;5029244;28;20042;-83
2021/07/10 04:16:36;;;;;;;7.60;2.70;;;15.60;99.90;;;;;;5048250;28;20167;-84
2021/07/10 04:19:07;;;;;;;5.53;2.60;;;14.90;99.90;;;;;;5042119;28;20029;-83
2021/07/10 04:21:35;;;;;;;6.88;3.40;;;14.60;99.90;;;;;;5033925;28;20049;-83
2021/07/10 04:24:05;;;;;;;5.22;2.97;;;15.90;99.90;;;;;;5044029;28;20057;-82
2021/07/10 04:26:38;;;;;;;5.82;3.08;;;15.60;99.90;;;;;;5040398;28;20042;-81
2021/07/10 04:29:09;;;;;;;5.45;2.50;;;15.60;99.90;;;;;;5041829;28;20057;-82
2021/07/10 04:31:43;;;;;;;7.03;2.70;;;15.70;99.90;;;;;;5009530;28;20060;-84
2021/07/10 04:34:18;;;;;;;4.95;2.75;;;15.80;99.90;;;;;;5044221;28;20049;-82
2021/07/10 04:36:52;;;;;;;7.80;2.53;;;15.80;99.90;;;;;;5042892;28;20064;-82
2021/07/10 04:39:20;;;;;;;7.72;2.58;;;15.60;99.90;;;;;;5044848;28;20049;-81
2021/07/10 04:42:01;;;;;;;6.22;2.25;;;15.60;99.90;;;;;;5034038;28;20056;-82
2021/07/10 04:44:31;;;;;;;3.67;2.72;;;15.60;99.90;;;;;;5024802;28;20052;-84
2021/07/10 04:47:01;;;;;;;9.30;3.30;;;15.70;99.90;;;;;;5015007;28;20058;-81
2021/07/10 04:49:40;;;;;;;7.28;2.70;;;15.60;99.90;;;;;;5021048;28;20046;-83
2021/07/10 04:52:12;;;;;;;8.00;2.92;;;15.60;99.90;;;;;;5034897;28;20059;-83
2021/07/10 04:54:48;;;;;;;7.20;2.50;;;15.60;99.90;;;;;;5058521;28;20045;-82
2021/07/10 04:57:21;;;;;;;8.57;2.53;;;16.00;99.90;;;;;;5026133;28;20049;-85
2021/07/10 05:00:01;;;;;;;3.78;2.13;;;15.60;99.90;;;;;;5025651;28;20060;-82
2021/07/10 05:02:42;;;;;;;6.55;3.33;;;15.00;99.90;;;;;;5043253;28;20053;-83
2021/07/10 05:05:16;;;;;;;6.47;2.60;;;15.70;99.90;;;;;;5042084;28;20053;-82
2021/07/10 05:07:52;;;;;;;8.18;3.33;;;16.00;99.90;;;;;;5042235;28;20045;-81
2021/07/10 05:10:23;;;;;;;9.20;3.22;;;15.70;99.90;;;;;;5026215;28;20049;-83
2021/07/10 05:13:09;;;;;;;12.10;3.38;;;15.60;99.90;;;;;;5042672;28;20056;-83
2021/07/10 05:15:51;;;;;;;7.00;2.92;;;15.70;99.90;;;;;;5044979;28;20116;-84
2021/07/10 05:18:28;;;;;;;6.78;2.70;;;15.80;99.90;;;;;;5043536;28;20057;-84
2021/07/10 05:21:17;;;;;;;;;;;;;;;;;;;;;
2021/07/10 05:23:46;;;;;;;6.78;2.63;;;15.70;99.90;;;;;;5046523;28;20049;-83
2021/07/10 05:26:22;;;;;;;7.65;3.25;;;15.70;99.90;;;;;;5046738;28;20532;-84
2021/07/10 05:29:05;;;;;;;;;;;;;;;;;;;;;
2021/07/10 05:31:40;;;;;;;7.65;2.88;;;15.70;99.90;;;;;;5029995;28;20048;-81
2021/07/10 05:34:20;;;;;;;7.53;3.15;;;15.70;99.90;;;;;;5027846;28;20053;-81
2021/07/10 05:36:58;;;;;;;3.65;2.75;;;14.90;99.90;;;;;;5044322;28;20041;-83
2021/07/10 05:39:35;;;;;;;8.55;2.78;;;15.90;99.90;;;;;;5043645;28;20064;-84
2021/07/10 05:42:07;;;;;;;8.02;3.40;;;15.80;99.90;;;;;;5012403;28;20050;-81
2021/07/10 05:44:55;;;;;;;4.63;2.50;;;15.80;99.90;;;;;;5016904;28;20045;-83
2021/07/10 05:47:34;;;;;;;5.78;3.08;;;15.80;99.90;;;;;;5027457;28;20636;-85
2021/07/10 05:50:10;;;;;;;10.02;5.25;;;16.80;99.90;;;;;;5034958;28;20083;-81
2021/07/10 05:52:42;;;;;;;6.35;2.58;;;16.00;99.90;;;;;;5060570;28;20049;-82
2021/07/10 05:55:10;;;;;;;11.55;2.75;;;16.70;99.90;;;;;;5045921;28;20045;-83
2021/07/10 05:58:06;;;;;;;8.85;2.97;;;15.90;99.90;;;;;;5049006;28;20060;-83
2021/07/10 06:00:39;;;;;;;6.15;2.70;;;16.10;99.90;;;;;;5024336;28;20046;-82
2021/07/10 06:03:12;;;;;;;6.25;3.00;;;15.80;99.90;;;;;;5008601;28;20050;-80
2021/07/10 06:05:45;;;;;;;8.02;4.13;;;15.80;99.90;;;;;;5010235;28;20061;-83
2021/07/10 06:08:27;;;;;;;4.78;2.70;;;15.80;99.90;;;;;;5029665;28;20045;-84
2021/07/10 06:10:58;;;;;;;9.85;3.03;;;15.80;99.90;;;;;;5019142;28;20044;-85
2021/07/10 06:13:27;;;;;;;4.47;2.58;;;16.30;99.90;;;;;;5038804;28;20314;-83
2021/07/10 06:15:56;;;;;;;7.03;2.67;;;15.80;99.90;;;;;;5024318;28;20037;-81
2021/07/10 06:18:42;;;;;;;6.57;3.28;;;15.90;99.90;;;;;;5034700;28;20046;-82
2021/07/10 06:21:15;;;;;;;6.75;2.40;;;15.80;99.90;;;;;;5023070;28;20046;-84
2021/07/10 06:23:56;;;;;;;4.38;2.50;;;16.00;99.90;;;;;;5036376;28;20054;-84
2021/07/10 06:26:31;;;;;;;6.35;2.85;;;14.70;99.90;;;;;;5040177;28;20033;-81
2021/07/10 06:29:17;;;;;;;7.18;2.97;;;16.00;99.90;;;;;;5040436;28;20049;-81
2021/07/10 06:32:00;;;;;;;7.05;3.05;;;16.10;99.90;;;;;;5045840;28;20051;-82
2021/07/10 06:34:31;;;;;;;9.18;3.30;;;16.00;99.90;;;;;;5010557;28;20054;-82
2021/07/10 06:37:19;;;;;;;5.85;2.97;;;16.10;99.90;;;;;;5057530;28;20049;-83
2021/07/10 06:40:03;;;;;;;5.13;2.60;;;16.00;99.90;;;;;;5028716;28;20056;-83
2021/07/10 06:42:46;;;;;;;12.02;5.25;;;16.10;99.90;;;;;;5046348;28;20068;-85
2021/07/10 06:45:30;;;;;;;11.45;3.45;;;14.80;99.90;;;;;;5028970;28;20061;-82
2021/07/10 06:48:09;;;;;;;6.43;3.15;;;16.30;99.90;;;;;;5044557;28;20049;-85
2021/07/10 06:50:45;;;;;;;11.68;3.08;;;16.30;99.90;;;;;;5043554;28;20060;-83
2021/07/10 06:53:36;;;;;;;4.65;2.50;;;17.00;99.90;;;;;;5045089;28;20049;-83
2021/07/10 06:56:20;;;;;;;7.32;2.83;;;16.40;99.90;;;;;;5032783;28;20042;-85
2021/07/10 06:58:56;;;;;;;7.75;2.95;;;16.50;99.90;;;;;;5044631;28;20111;-83
2021/07/10 07:01:31;;;;;;;6.32;3.10;;;16.60;99.90;;;;;;5046794;28;20064;-82
2021/07/10 07:04:44;;;;;;;9.48;3.63;;;16.60;99.90;;;;;;5054276;28;20068;-82
2021/07/10 07:07:50;;;;;;;7.30;2.63;;;16.70;99.90;;;;;;5044564;28;20041;-83
2021/07/10 07:10:26;;;;;;;11.85;2.97;;;16.80;99.90;;;;;;5040547;28;20060;-82
2021/07/10 07:13:10;;;;;;;4.18;2.33;;;16.90;99.90;;;;;;5042385;28;20052;-83
2021/07/10 07:16:01;;;;;;;;;;;;;;;;;;;;;
2021/07/10 07:18:36;;;;;;;5.68;2.92;;;17.50;99.90;;;;;;5014560;28;20046;-83
2021/07/10 07:21:12;;;;;;;6.47;2.63;;;17.10;99.90;;;;;;5046449;28;20042;-83
2021/07/10 07:23:51;;;;;;;3.80;2.53;;;17.20;99.90;;;;;;5047630;28;20056;-85
2021/07/10 07:26:24;;;;;;;9.10;5.15;;;17.20;99.90;;;;;;5028171;28;20044;-82
2021/07/10 07:28:55;;;;;;;3.72;2.35;;;17.30;99.90;;;;;;5054801;28;20053;-83
2021/07/10 07:31:31;;;;;;;5.88;2.92;;;17.20;99.90;;;;;;5062069;28;20052;-83
2021/07/10 07:34:10;;;;;;;8.80;2.67;;;17.40;99.90;;;;;;5045115;28;20059;-83
2021/07/10 07:36:43;;;;;;;6.15;2.22;;;17.40;99.90;;;;;;5048171;28;20045;-83
2021/07/10 07:39:27;;;;;;;7.22;2.53;;;17.40;99.90;;;;;;5027028;28;20056;-84
2021/07/10 07:42:32;;;;;;;7.55;2.75;;;17.50;99.90;;;;;;5039679;28;20047;-84
2021/07/10 07:45:23;;;;;;;7.72;2.25;;;17.50;99.90;;;;;;4998115;28;20044;-83
2021/07/10 07:48:11;;;;;;;15.00;3.58;;;17.60;99.90;;;;;;5004211;28;20045;-82
2021/07/10 07:50:52;;;;;;;6.78;2.50;;;18.10;99.90;;;;;;5025190;28;20057;-84
2021/07/10 07:53:46;;;;;;;;;;;;;;;;;;;;;
2021/07/10 07:56:39;;;;;;;6.05;2.65;;;18.30;99.90;;;;;;5045524;28;20044;-84
2021/07/10 07:59:20;;;;;;;7.97;3.20;;;17.30;99.90;;;;;;5041185;28;20041;-81
2021/07/10 08:02:12;;;;;;;8.38;3.85;;;17.80;99.90;;;;;;5026816;28;20055;-82
2021/07/10 08:05:17;;;;;;;7.13;3.20;;;17.90;99.90;;;;;;5008983;28;20045;-84
2021/07/10 08:08:42;;;;;;;6.80;3.47;;;17.90;99.90;;;;;;5023112;28;20056;-83
2021/07/10 08:11:45;;;;;;;3.72;2.30;;;18.00;99.90;;;;;;5060064;28;20053;-83
2021/07/10 08:14:31;;;;;;;6.35;2.15;;;18.10;99.90;;;;;;5027245;28;20060;-84
2021/07/10 08:17:02;;;;;;;6.60;2.92;;;18.00;99.90;;;;;;5025056;28;20038;-84
2021/07/10 08:19:31;;;;;;;5.35;2.75;;;17.20;99.90;;;;;;5004912;28;20046;-83
2021/07/10 08:22:02;;;;;;;5.38;1.92;;;17.90;99.90;;;;;;5028747;28;20038;-81
2021/07/10 08:24:35;;;;;;;7.38;2.95;;;19.20;99.90;;;;;;5039600;28;20048;-82
2021/07/10 08:27:09;;;;;;;7.90;3.08;;;18.00;99.90;;;;;;5013544;28;20054;-81
2021/07/10 08:29:42;;;;;;;4.78;2.20;;;17.70;99.90;;;;;;5045518;28;20049;-81
2021/07/10 08:32:21;;;;;;;8.23;3.20;;;17.90;99.90;;;;;;5029631;28;20649;-84
2021/07/10 08:34:54;;;;;;;5.88;2.72;;;17.90;99.90;;;;;;5026977;28;20068;-83
2021/07/10 08:37:42;;;;;;;5.10;2.85;;;17.90;99.90;;;;;;5030541;28;20046;-81
2021/07/10 08:41:08;;;;;;;;;;;;;;;;;;;;;
2021/07/10 08:44:41;;;;;;;7.72;2.58;;;17.80;99.90;;;;;;5025875;28;20613;-82
2021/07/10 08:48:19;;;;;;;14.32;3.08;;;17.70;99.90;;;;;;4988572;28;20054;-82
2021/07/10 08:51:30;;;;;;;6.28;2.90;;;16.90;99.90;;;;;;4987905;28;20058;-84
2021/07/10 08:57:56;;;;;;;7.20;2.42;;;17.90;99.90;;;;;;4988806;28;20064;-83
2021/07/10 09:00:49;;;;;;;6.90;3.20;;;17.80;99.90;;;;;;4997784;28;20058;-84
2021/07/10 09:04:17;;;;;;;;;;;;;;;;;;;;;
2021/07/10 09:07:04;;;;;;;9.80;3.00;;;16.90;99.90;;;;;;5002621;28;20054;-83
2021/07/10 09:10:46;;;;;;;;;;;;;;;;;;;;;
2021/07/10 09:17:35;;;;;;;;;;;;;;;;;;;;;
2021/07/10 09:20:30;;;;;;;9.02;2.80;;;18.30;99.90;;;;;;4985754;28;20050;-82
2021/07/10 09:23:48;;;;;;;;;;;;;;;;;;;;;
2021/07/10 09:27:07;;;;;;;5.57;2.35;;;18.40;99.90;;;;;;5027529;28;20053;-84
2021/07/10 09:29:45;;;;;;;9.20;2.58;;;18.60;99.90;;;;;;5008310;28;20050;-82
2021/07/10 09:32:25;;;;;;;6.65;2.40;;;18.60;99.90;;;;;;5036675;28;20041;-83
2021/07/10 09:36:10;;;;;;;5.50;2.83;;;18.70;99.90;;;;;;5017095;28;20054;-82
2021/07/10 09:38:56;;;;;;;23.10;4.50;;;18.80;99.90;;;;;;5027011;28;20124;-82
2021/07/10 09:41:42;;;;;;;9.70;3.45;;;18.90;99.90;;;;;;5042175;28;20068;-84
2021/07/10 09:44:55;;;;;;;5.30;2.75;;;19.00;99.90;;;;;;5031333;28;20055;-81
2021/07/10 09:47:50;;;;;;;5.75;1.92;;;19.80;99.90;;;;;;5042890;28;20053;-83
2021/07/10 09:50:28;;;;;;;6.45;2.50;;;19.10;99.90;;;;;;5037205;28;20041;-82
2021/07/10 09:53:31;;;;;;;5.47;2.70;;;19.60;99.90;;;;;;5039402;28;20057;-84
2021/07/10 09:56:09;;;;;;;5.05;2.58;;;19.20;99.90;;;;;;5040059;28;20048;-84
2021/07/10 09:59:41;;;;;;;4.35;2.40;;;19.20;99.90;;;;;;5040270;28;20037;-83
2021/07/10 10:03:13;;;;;;;7.38;2.25;;;18.90;99.90;;;;;;5035430;28;20061;-86
2021/07/10 10:06:59;;;;;;;6.13;2.97;;;19.00;99.90;;;;;;4990834;28;20088;-83
2021/07/10 10:10:33;;;;;;;5.05;2.55;;;19.20;99.90;;;;;;4972897;28;20051;-83
2021/07/10 10:13:04;;;;;;;5.82;2.10;;;19.10;99.90;;;;;;4955412;28;20057;-84
2021/07/10 10:17:06;;;;;;;7.68;2.63;;;19.20;99.90;;;;;;4878542;29;20056;-83
2021/07/10 10:20:19;;;;;;;5.57;2.70;;;20.40;99.90;;;;;;4879443;29;20064;-84
2021/07/10 10:23:16;;;;;;;10.17;5.10;;;19.40;99.90;;;;;;4872364;29;20063;-83
2021/07/10 10:27:12;;;;;;;3.80;2.05;;;19.60;99.90;;;;;;4930202;28;20065;-83
2021/07/10 10:30:40;;;;;;;;;;;;;;;;;;;;;
2021/07/10 10:33:56;;;;;;;;;;;;;;;;;;;;;
2021/07/10 10:37:07;;;;;;;;;;;;;;;;;;;;;
2021/07/10 10:40:36;;;;;;;5.45;2.17;;;18.80;99.90;;;;;;4985712;28;20233;-84
2021/07/10 10:43:32;;;;;;;4.30;2.33;;;19.60;99.90;;;;;;5029130;28;20046;-83
2021/07/10 10:46:36;;;;;;;7.38;2.65;;;19.50;99.90;;;;;;5043229;28;20972;-84
2021/07/10 10:49:56;;;;;;;4.35;2.35;;;19.60;99.90;;;;;;4974232;28;20067;-84
2021/07/10 10:53:27;;;;;;;5.28;1.92;;;19.70;99.90;;;;;;5007264;28;20105;-84
2021/07/10 10:56:46;;;;;;;6.57;3.30;;;19.80;99.90;;;;;;4950435;28;20067;-83
2021/07/10 11:00:02;;;;;;;5.20;2.50;;;20.00;99.90;;;;;;4963087;28;20065;-85
2021/07/10 11:03:41;;;;;;;7.22;2.83;;;20.00;99.90;;;;;;4976133;28;20086;-82
2021/07/10 11:06:34;;;;;;;35.47;2.78;;;20.00;99.90;;;;;;4966760;28;20214;-84
2021/07/10 11:11:01;;;;;;;5.45;2.55;;;20.00;99.90;;;;;;4933390;28;20123;-84
2021/07/10 11:14:11;;;;;;;7.57;2.50;;;20.10;99.90;;;;;;5022573;28;20065;-83
2021/07/10 11:17:37;;;;;;;7.82;2.55;;;19.90;99.90;;;;;;5032713;28;20415;-83
2021/07/10 11:20:32;;;;;;;7.35;2.45;;;19.90;99.90;;;;;;5015227;28;20056;-84
2021/07/10 11:24:28;;;;;;;7.38;2.08;;;19.20;99.90;;;;;;5038039;28;20045;-83
2021/07/10 11:28:46;;;;;;;4.53;2.92;;;21.10;99.90;;;;;;5010448;28;20053;-84
2021/07/10 11:32:44;;;;;;;5.53;3.17;;;19.90;99.90;;;;;;5055177;28;20115;-83
2021/07/10 11:36:04;;;;;;;;;;;19.80;99.90;;;;;;5042914;28;20045;-83
2021/07/10 11:39:33;;;;;;;6.68;2.95;;;19.70;99.90;;;;;;4910864;29;20405;-83
2021/07/10 11:42:29;;;;;;;6.95;2.70;;;19.90;99.90;;;;;;4976679;28;20061;-84
2021/07/10 11:45:50;;;;;;;4.65;2.42;;;19.80;99.90;;;;;;4943877;28;20039;-83
2021/07/10 11:48:40;;;;;;;7.40;3.38;;;19.70;99.90;;;;;;4977485;28;20058;-83
2021/07/10 11:51:10;;;;;;;10.52;3.85;;;19.60;99.90;;;;;;4989767;28;20055;-81
2021/07/10 11:53:39;;;;;;;10.63;4.40;;;19.50;99.90;;;;;;4986298;28;20218;-83
2021/07/10 11:56:09;;;;;;;10.57;3.88;;;19.40;99.90;;;;;;5012551;28;20063;-83
2021/07/10 11:58:40;;;;;;;9.60;3.30;;;19.30;99.90;;;;;;5041014;28;20053;-86
2021/07/10 12:01:13;;;;;;;5.65;3.05;;;19.10;99.90;;;;;;5038149;28;20049;-85
2021/07/10 12:03:45;;;;;;;11.55;4.18;;;19.10;99.90;;;;;;5009752;28;20058;-87
2021/07/10 12:06:20;;;;;;;8.13;3.70;;;19.00;99.90;;;;;;5038516;28;20045;-86
2021/07/10 12:09:00;;;;;;;7.47;3.67;;;18.90;99.90;;;;;;5046919;28;20040;-85
2021/07/10 12:11:29;;;;;;;6.80;3.28;;;19.00;99.90;;;;;;5029858;28;20057;-86
2021/07/10 12:14:08;;;;;;;;;;;19.00;99.90;;;;;;5007851;28;20048;-86
2021/07/10 12:16:37;;;;;;;7.18;3.58;;;19.00;99.90;;;;;;5060458;28;19948;-84
2021/07/10 12:19:47;;;;;;;;;;;;;;;;;;;;;
2021/07/10 12:23:25;;;;;;;8.13;3.28;;;19.30;99.90;;;;;;5027846;28;20053;-82
2021/07/10 12:26:53;;;;;;;6.82;3.30;;;19.20;99.90;;;;;;4957866;28;20050;-83
2021/07/10 12:29:36;;;;;;;7.53;3.77;;;19.20;99.90;;;;;;5000678;28;20047;-83
2021/07/10 12:32:29;;;;;;;9.33;4.67;;;19.10;99.90;;;;;;4987641;28;20302;-83
2021/07/10 12:35:43;;;;;;;9.60;3.40;;;19.10;99.90;;;;;;4958666;28;20058;-82
2021/07/10 12:47:49;;;;;;;;;;;;;;;;;;;;;
2021/07/10 12:51:31;;;;;;;;;;;;;;;;;;;;;
2021/07/10 12:55:38;;;;;;;9.07;4.20;;;19.20;99.90;;;;;;4877892;29;20049;-84
2021/07/10 12:58:40;;;;;;;10.95;4.68;;;18.70;99.90;;;;;;4890791;29;20093;-83
2021/07/10 13:07:28;;;;;;;;;;;;;;;;;;;;;
2021/07/10 13:15:42;;;;;;;11.15;5.30;;;19.10;99.90;;;;;;4873420;29;20080;-82
2021/07/10 13:19:36;;;;;;;11.20;4.63;;;18.90;99.90;;;;;;4921172;28;20050;-82
2021/07/10 13:23:11;;;;;;;9.95;5.18;;;18.90;99.90;;;;;;4935040;28;20054;-82
2021/07/10 13:26:30;;;;;;;12.88;5.50;;;19.00;99.90;;;;;;4959965;28;20041;-83
2021/07/10 13:29:16;;;;;;;16.98;5.15;;;19.10;99.90;;;;;;5024322;28;20056;-82
2021/07/10 13:31:58;;;;;;;11.50;5.80;;;18.90;99.90;;;;;;5026164;28;20050;-83
2021/07/10 13:34:38;;;;;;;9.52;4.97;;;19.20;99.90;;;;;;5024722;28;20056;-83
2021/07/10 13:37:15;;;;;;;10.63;4.55;;;19.00;99.90;;;;;;5039412;28;20044;-83
2021/07/10 13:40:37;;;;;;;14.52;5.07;;;19.10;99.90;;;;;;5039744;28;20024;-82
2021/07/10 13:44:45;;;;;;;;;;;;;;;;;;;;;
2021/07/10 13:48:13;;;;;;;12.88;5.05;;;19.20;99.90;;;;;;4962869;28;20058;-83
2021/07/10 13:50:41;;;;;;;;;;;19.10;99.90;;;;;;5032050;28;20067;-84
2021/07/10 13:53:47;;;;;;;8.43;5.15;;;19.10;99.90;;;;;;5034989;28;19929;-83
2021/07/10 13:56:34;;;;;;;10.50;4.85;;;19.10;99.90;;;;;;5026932;28;20061;-83
2021/07/10 13:59:27;;;;;;;12.13;5.50;;;19.20;99.90;;;;;;5033036;28;20038;-84
2021/07/10 14:03:15;;;;;;;10.63;4.18;;;19.10;99.90;;;;;;4978432;28;20046;-84
2021/07/10 14:06:54;;;;;;;11.85;4.47;;;19.00;99.90;;;;;;4987414;28;20229;-83
2021/07/10 14:09:22;;;;;;;9.20;4.47;;;19.00;99.90;;;;;;4985297;28;20053;-83
2021/07/10 14:11:57;;;;;;;9.65;4.85;;;19.10;99.90;;;;;;5002911;28;20097;-82
2021/07/10 14:14:39;;;;;;;9.65;4.43;;;19.10;99.90;;;;;;5002311;28;20033;-83
2021/07/10 14:17:36;;;;;;;11.55;4.47;;;18.30;99.90;;;;;;4992213;28;20053;-83
2021/07/10 14:20:29;;;;;;;10.95;5.05;;;19.20;99.90;;;;;;5027449;28;20047;-84
2021/07/10 14:27:22;;;;;;;10.85;4.18;;;19.30;99.90;;;;;;4984265;28;20489;-82
2021/07/10 14:30:44;;;;;;;;;;;;;;;;;;;;;
2021/07/10 14:34:19;;;;;;;11.35;5.25;;;19.40;99.90;;;;;;5027482;28;20053;-84
2021/07/10 14:37:39;;;;;;;7.95;4.18;;;19.30;99.90;;;;;;5032544;28;20087;-83
2021/07/10 14:40:54;;;;;;;8.02;4.80;;;19.30;99.90;;;;;;4989731;28;20067;-84
2021/07/10 14:44:20;;;;;;;;;;;;;;;;;;;;;
2021/07/10 14:50:59;;;;;;;8.90;4.25;;;19.50;99.90;;;;;;4960978;28;20043;-83
2021/07/10 14:54:12;;;;;;;11.30;3.95;;;19.60;99.90;;;;;;4978019;28;20062;-82
2021/07/10 14:57:50;;;;;;;;;;;;;;;;;;;;;
2021/07/10 15:01:19;;;;;;;7.70;3.83;;;21.50;99.90;;;;;;4970512;28;20042;-84
2021/07/10 15:04:57;;;;;;;5.47;2.85;;;20.00;99.90;;;;;;4901276;29;20048;-84
2021/07/10 15:08:34;;;;;;;6.63;2.72;;;20.10;99.90;;;;;;4815281;29;20067;-83
2021/07/10 15:12:50;;;;;;;;;;;;;;;;;;;;;
2021/07/10 15:16:27;;;;;;;;;;;;;;;;;;;;;
2021/07/10 15:20:27;;;;;;;6.45;3.47;;;20.50;99.90;;;;;;4788723;30;20069;-84
2021/07/10 15:24:24;;;;;;;6.22;2.60;;;20.70;99.90;;;;;;4810359;29;20065;-84
2021/07/10 15:27:28;;;;;;;7.38;2.60;;;21.00;99.90;;;;;;4846461;29;20058;-84
2021/07/10 15:30:36;;;;;;;;;;;;;;;;;;;;;
2021/07/10 15:33:56;;;;;;;3.85;2.88;;;21.40;99.90;;;;;;4879771;29;20380;-83
2021/07/10 15:36:34;;;;;;;6.85;2.97;;;21.60;99.90;;;;;;4892740;29;20084;-84
2021/07/10 15:39:49;;;;;;;;;;;;;;;;;;;;;
2021/07/10 15:43:59;;;;;;;;;;;;;;;;;;;;;
2021/07/10 15:47:55;;;;;;;9.32;3.30;;;20.60;99.90;;;;;;5035387;28;20040;-85
2021/07/10 15:51:56;;;;;;;;;;;;;;;;;;;;;
2021/07/10 15:55:33;;;;;;;;;;;;;;;;;;;;;
2021/07/10 15:59:04;;;;;;;;;;;;;;;;;;;;;
2021/07/10 16:02:30;;;;;;;15.07;3.55;;;20.70;99.90;;;;;;5052473;28;19952;-83
2021/07/10 16:05:24;;;;;;;6.65;2.53;;;20.50;99.90;;;;;;5032108;28;20045;-84
2021/07/10 16:08:20;;;;;;;5.35;2.60;;;20.50;99.90;;;;;;5005965;28;20057;-84
2021/07/10 16:11:35;;;;;;;4.40;2.80;;;20.50;99.90;;;;;;5022922;22;20058;-91
2021/07/10 16:14:20;;;;;;;6.25;3.38;;;20.50;99.90;;;;;;4986860;28;20430;-90
2021/07/10 16:16:56;;;;;;;3.80;2.28;;;20.50;99.90;;;;;;4979603;28;20053;-91